sensor_id;sensor_type;location;lat;lon;timestamp;temperature;humidity
47414;DHT22;33163;0.000;0.000;2022-08-03T00:00:18;23.70;66.00
47414;DHT22;33163;0.000;0.000;2022-08-03T00:02:45;23.80;66.10
47414;DHT22;33163;0.000;0.000;2022-08-03T00:05:12;23.70;66.10
47414;DHT22;33163;0.000;0.000;2022-08-03T00:07:39;23.70;66.20
47414;DHT22;33163;0.000;0.000;2022-08-03T00:10:06;23.70;66.10
47414;DHT22;33163;0.000;0.000;2022-08-03T00:12:33;23.70;66.10
47414;DHT22;33163;0.000;0.000;2022-08-03T00:15:00;23.70;66.20
47414;DHT22;33163;0.000;0.000;2022-08-03T00:17:29;23.70;66.10
47414;DHT22;33163;0.000;0.000;2022-08-03T00:19:55;23.70;66.10
47414;DHT22;33163;0.000;0.000;2022-08-03T00:22:22;23.70;66.20
47414;DHT22;33163;0.000;0.000;2022-08-03T00:24:49;23.70;66.20
47414;DHT22;33163;0.000;0.000;2022-08-03T00:27:16;23.70;66.20
47414;DHT22;33163;0.000;0.000;2022-08-03T00:29:42;23.70;66.20
47414;DHT22;33163;0.000;0.000;2022-08-03T00:32:09;23.70;66.30
47414;DHT22;33163;0.000;0.000;2022-08-03T00:34:37;23.70;66.20
47414;DHT22;33163;0.000;0.000;2022-08-03T00:37:04;23.70;66.20
47414;DHT22;33163;0.000;0.000;2022-08-03T00:39:30;23.70;66.30
47414;DHT22;33163;0.000;0.000;2022-08-03T00:42:01;23.70;66.30
47414;DHT22;33163;0.000;0.000;2022-08-03T00:44:28;23.70;66.30
47414;DHT22;33163;0.000;0.000;2022-08-03T00:46:54;23.70;66.40
47414;DHT22;33163;0.000;0.000;2022-08-03T00:49:21;23.70;66.40
47414;DHT22;33163;0.000;0.000;2022-08-03T00:51:50;23.70;66.40
47414;DHT22;33163;0.000;0.000;2022-08-03T00:54:19;23.70;66.50
47414;DHT22;33163;0.000;0.000;2022-08-03T00:56:46;23.70;66.40
47414;DHT22;33163;0.000;0.000;2022-08-03T00:59:13;23.70;66.50
47414;DHT22;33163;0.000;0.000;2022-08-03T01:01:41;23.70;66.50
47414;DHT22;33163;0.000;0.000;2022-08-03T01:04:08;23.70;66.50
47414;DHT22;33163;0.000;0.000;2022-08-03T01:06:42;23.70;66.50
47414;DHT22;33163;0.000;0.000;2022-08-03T01:09:19;23.70;66.50
47414;DHT22;33163;0.000;0.000;2022-08-03T01:11:52;23.70;66.50
47414;DHT22;33163;0.000;0.000;2022-08-03T01:14:31;23.70;66.50
47414;DHT22;33163;0.000;0.000;2022-08-03T01:17:02;23.70;66.50
47414;DHT22;33163;0.000;0.000;2022-08-03T01:19:40;23.70;67.30
47414;DHT22;33163;0.000;0.000;2022-08-03T01:22:22;23.70;66.60
47414;DHT22;33163;0.000;0.000;2022-08-03T01:25:03;23.70;66.60
47414;DHT22;33163;0.000;0.000;2022-08-03T01:27:55;23.70;66.70
47414;DHT22;33163;0.000;0.000;2022-08-03T01:30:29;23.70;66.60
47414;DHT22;33163;0.000;0.000;2022-08-03T01:32:59;23.70;66.70
47414;DHT22;33163;0.000;0.000;2022-08-03T01:35:32;23.70;66.60
47414;DHT22;33163;0.000;0.000;2022-08-03T01:38:02;23.70;66.80
47414;DHT22;33163;0.000;0.000;2022-08-03T01:40:31;23.70;66.70
47414;DHT22;33163;0.000;0.000;2022-08-03T01:43:02;23.70;66.80
47414;DHT22;33163;0.000;0.000;2022-08-03T01:45:31;23.70;66.70
47414;DHT22;33163;0.000;0.000;2022-08-03T01:48:00;23.70;66.70
47414;DHT22;33163;0.000;0.000;2022-08-03T01:50:29;23.70;66.80
47414;DHT22;33163;0.000;0.000;2022-08-03T01:52:59;23.70;66.80
47414;DHT22;33163;0.000;0.000;2022-08-03T01:55:28;23.70;66.80
47414;DHT22;33163;0.000;0.000;2022-08-03T01:57:58;23.70;66.80
47414;DHT22;33163;0.000;0.000;2022-08-03T02:00:28;23.70;66.80
47414;DHT22;33163;0.000;0.000;2022-08-03T02:02:57;23.70;66.80
47414;DHT22;33163;0.000;0.000;2022-08-03T02:05:26;23.60;66.80
47414;DHT22;33163;0.000;0.000;2022-08-03T02:07:55;23.70;66.80
47414;DHT22;33163;0.000;0.000;2022-08-03T02:10:23;23.60;67.00
47414;DHT22;33163;0.000;0.000;2022-08-03T02:12:53;23.60;66.90
47414;DHT22;33163;0.000;0.000;2022-08-03T02:15:21;23.60;66.80
47414;DHT22;33163;0.000;0.000;2022-08-03T02:17:48;23.60;66.90
47414;DHT22;33163;0.000;0.000;2022-08-03T02:20:17;23.60;66.90
47414;DHT22;33163;0.000;0.000;2022-08-03T02:22:45;23.60;66.70
47414;DHT22;33163;0.000;0.000;2022-08-03T02:25:14;23.60;66.80
47414;DHT22;33163;0.000;0.000;2022-08-03T02:27:48;23.60;66.90
47414;DHT22;33163;0.000;0.000;2022-08-03T02:30:17;23.60;66.90
47414;DHT22;33163;0.000;0.000;2022-08-03T02:32:49;23.70;67.00
47414;DHT22;33163;0.000;0.000;2022-08-03T02:35:21;23.60;67.50
47414;DHT22;33163;0.000;0.000;2022-08-03T02:37:51;23.60;66.90
47414;DHT22;33163;0.000;0.000;2022-08-03T02:40:19;23.60;66.90
47414;DHT22;33163;0.000;0.000;2022-08-03T02:42:48;23.60;66.90
47414;DHT22;33163;0.000;0.000;2022-08-03T02:45:17;23.60;66.90
47414;DHT22;33163;0.000;0.000;2022-08-03T02:47:46;23.60;67.10
47414;DHT22;33163;0.000;0.000;2022-08-03T02:50:15;23.60;66.90
47414;DHT22;33163;0.000;0.000;2022-08-03T02:52:44;23.60;66.90
47414;DHT22;33163;0.000;0.000;2022-08-03T02:55:13;23.60;66.90
47414;DHT22;33163;0.000;0.000;2022-08-03T02:57:42;23.60;66.80
47414;DHT22;33163;0.000;0.000;2022-08-03T03:00:12;23.60;66.90
47414;DHT22;33163;0.000;0.000;2022-08-03T03:02:40;23.60;66.90
47414;DHT22;33163;0.000;0.000;2022-08-03T03:05:09;23.60;67.00
47414;DHT22;33163;0.000;0.000;2022-08-03T03:07:36;23.60;66.70
47414;DHT22;33163;0.000;0.000;2022-08-03T03:10:06;23.60;66.80
47414;DHT22;33163;0.000;0.000;2022-08-03T03:12:35;23.60;66.90
47414;DHT22;33163;0.000;0.000;2022-08-03T03:15:03;23.60;66.80
47414;DHT22;33163;0.000;0.000;2022-08-03T03:17:32;23.60;66.70
47414;DHT22;33163;0.000;0.000;2022-08-03T03:19:59;23.60;66.80
47414;DHT22;33163;0.000;0.000;2022-08-03T03:22:27;23.60;66.90
47414;DHT22;33163;0.000;0.000;2022-08-03T03:24:55;23.60;66.90
47414;DHT22;33163;0.000;0.000;2022-08-03T03:27:23;23.60;66.90
47414;DHT22;33163;0.000;0.000;2022-08-03T03:29:50;23.60;66.90
47414;DHT22;33163;0.000;0.000;2022-08-03T03:32:17;23.60;66.90
47414;DHT22;33163;0.000;0.000;2022-08-03T03:34:44;23.60;66.90
47414;DHT22;33163;0.000;0.000;2022-08-03T03:37:11;23.60;67.00
47414;DHT22;33163;0.000;0.000;2022-08-03T03:39:38;23.60;66.80
47414;DHT22;33163;0.000;0.000;2022-08-03T03:42:05;23.60;67.00
47414;DHT22;33163;0.000;0.000;2022-08-03T03:44:33;23.60;66.90
47414;DHT22;33163;0.000;0.000;2022-08-03T03:47:00;23.60;66.90
47414;DHT22;33163;0.000;0.000;2022-08-03T03:49:28;23.60;66.80
47414;DHT22;33163;0.000;0.000;2022-08-03T03:51:55;23.60;66.80
47414;DHT22;33163;0.000;0.000;2022-08-03T03:54:22;23.60;66.90
47414;DHT22;33163;0.000;0.000;2022-08-03T03:56:48;23.60;66.90
47414;DHT22;33163;0.000;0.000;2022-08-03T03:59:15;23.60;67.00
47414;DHT22;33163;0.000;0.000;2022-08-03T04:01:44;23.60;66.90
47414;DHT22;33163;0.000;0.000;2022-08-03T04:04:11;23.60;67.10
47414;DHT22;33163;0.000;0.000;2022-08-03T04:06:55;23.60;67.00
47414;DHT22;33163;0.000;0.000;2022-08-03T04:09:40;23.60;66.90
47414;DHT22;33163;0.000;0.000;2022-08-03T04:12:27;23.60;66.80
47414;DHT22;33163;0.000;0.000;2022-08-03T04:14:56;23.60;67.00
47414;DHT22;33163;0.000;0.000;2022-08-03T04:17:26;23.60;66.90
47414;DHT22;33163;0.000;0.000;2022-08-03T04:19:54;23.60;67.10
47414;DHT22;33163;0.000;0.000;2022-08-03T04:22:25;23.60;67.00
47414;DHT22;33163;0.000;0.000;2022-08-03T04:24:57;23.60;67.10
47414;DHT22;33163;0.000;0.000;2022-08-03T04:27:31;23.60;66.90
47414;DHT22;33163;0.000;0.000;2022-08-03T04:29:59;23.60;67.50
47414;DHT22;33163;0.000;0.000;2022-08-03T04:32:29;23.60;67.00
47414;DHT22;33163;0.000;0.000;2022-08-03T04:34:57;23.60;67.00
47414;DHT22;33163;0.000;0.000;2022-08-03T04:37:29;23.60;67.10
47414;DHT22;33163;0.000;0.000;2022-08-03T04:40:00;23.60;67.00
47414;DHT22;33163;0.000;0.000;2022-08-03T04:42:28;23.60;67.00
47414;DHT22;33163;0.000;0.000;2022-08-03T04:44:57;23.50;66.90
47414;DHT22;33163;0.000;0.000;2022-08-03T04:47:24;23.50;66.90
47414;DHT22;33163;0.000;0.000;2022-08-03T04:49:52;23.50;67.10
47414;DHT22;33163;0.000;0.000;2022-08-03T04:52:19;23.60;67.00
47414;DHT22;33163;0.000;0.000;2022-08-03T04:54:46;23.60;67.00
47414;DHT22;33163;0.000;0.000;2022-08-03T04:57:14;23.50;67.70
47414;DHT22;33163;0.000;0.000;2022-08-03T04:59:40;23.60;66.90
47414;DHT22;33163;0.000;0.000;2022-08-03T05:02:07;23.50;67.00
47414;DHT22;33163;0.000;0.000;2022-08-03T05:04:34;23.50;67.20
47414;DHT22;33163;0.000;0.000;2022-08-03T05:07:03;23.50;67.10
47414;DHT22;33163;0.000;0.000;2022-08-03T05:09:30;23.50;67.10
47414;DHT22;33163;0.000;0.000;2022-08-03T05:11:57;23.60;67.30
47414;DHT22;33163;0.000;0.000;2022-08-03T05:14:24;23.50;67.10
47414;DHT22;33163;0.000;0.000;2022-08-03T05:16:50;23.60;67.20
47414;DHT22;33163;0.000;0.000;2022-08-03T05:19:17;23.50;67.10
47414;DHT22;33163;0.000;0.000;2022-08-03T05:21:44;23.50;67.20
47414;DHT22;33163;0.000;0.000;2022-08-03T05:24:12;23.50;67.20
47414;DHT22;33163;0.000;0.000;2022-08-03T05:26:39;23.50;67.00
47414;DHT22;33163;0.000;0.000;2022-08-03T05:29:06;23.50;67.00
47414;DHT22;33163;0.000;0.000;2022-08-03T05:31:33;23.50;67.10
47414;DHT22;33163;0.000;0.000;2022-08-03T05:33:59;23.50;67.20
47414;DHT22;33163;0.000;0.000;2022-08-03T05:36:26;23.50;67.20
47414;DHT22;33163;0.000;0.000;2022-08-03T05:38:53;23.50;67.20
47414;DHT22;33163;0.000;0.000;2022-08-03T05:41:21;23.50;67.20
47414;DHT22;33163;0.000;0.000;2022-08-03T05:43:48;23.50;67.30
47414;DHT22;33163;0.000;0.000;2022-08-03T05:46:15;23.50;67.20
47414;DHT22;33163;0.000;0.000;2022-08-03T05:48:44;23.50;67.30
47414;DHT22;33163;0.000;0.000;2022-08-03T05:51:12;23.50;67.50
47414;DHT22;33163;0.000;0.000;2022-08-03T05:53:39;23.50;67.50
47414;DHT22;33163;0.000;0.000;2022-08-03T05:56:06;23.50;67.50
47414;DHT22;33163;0.000;0.000;2022-08-03T05:58:34;23.50;67.70
47414;DHT22;33163;0.000;0.000;2022-08-03T06:01:01;23.50;67.60
47414;DHT22;33163;0.000;0.000;2022-08-03T06:03:28;23.50;67.50
47414;DHT22;33163;0.000;0.000;2022-08-03T06:05:55;23.50;67.60
47414;DHT22;33163;0.000;0.000;2022-08-03T06:08:21;23.60;67.60
47414;DHT22;33163;0.000;0.000;2022-08-03T06:10:48;23.50;67.80
47414;DHT22;33163;0.000;0.000;2022-08-03T06:13:15;23.50;67.90
47414;DHT22;33163;0.000;0.000;2022-08-03T06:15:43;23.50;67.70
47414;DHT22;33163;0.000;0.000;2022-08-03T06:18:10;23.50;67.80
47414;DHT22;33163;0.000;0.000;2022-08-03T06:20:37;23.60;67.80
47414;DHT22;33163;0.000;0.000;2022-08-03T06:23:03;23.50;67.70
47414;DHT22;33163;0.000;0.000;2022-08-03T06:25:30;23.50;67.60
47414;DHT22;33163;0.000;0.000;2022-08-03T06:27:57;23.60;67.80
47414;DHT22;33163;0.000;0.000;2022-08-03T06:30:25;23.60;67.80
47414;DHT22;33163;0.000;0.000;2022-08-03T06:32:53;23.60;67.80
47414;DHT22;33163;0.000;0.000;2022-08-03T06:35:20;23.50;67.80
47414;DHT22;33163;0.000;0.000;2022-08-03T06:37:47;23.60;67.90
47414;DHT22;33163;0.000;0.000;2022-08-03T06:40:16;23.60;68.50
47414;DHT22;33163;0.000;0.000;2022-08-03T06:42:43;23.60;67.90
47414;DHT22;33163;0.000;0.000;2022-08-03T06:45:11;23.60;67.80
47414;DHT22;33163;0.000;0.000;2022-08-03T06:47:39;23.60;67.80
47414;DHT22;33163;0.000;0.000;2022-08-03T06:50:09;23.60;67.80
47414;DHT22;33163;0.000;0.000;2022-08-03T06:52:36;23.60;67.70
47414;DHT22;33163;0.000;0.000;2022-08-03T06:55:03;23.60;67.70
47414;DHT22;33163;0.000;0.000;2022-08-03T06:57:30;23.60;67.80
47414;DHT22;33163;0.000;0.000;2022-08-03T06:59:57;23.60;67.70
47414;DHT22;33163;0.000;0.000;2022-08-03T07:02:26;23.60;67.70
47414;DHT22;33163;0.000;0.000;2022-08-03T07:04:53;23.60;67.80
47414;DHT22;33163;0.000;0.000;2022-08-03T07:07:21;23.60;67.80
47414;DHT22;33163;0.000;0.000;2022-08-03T07:09:48;23.60;67.80
47414;DHT22;33163;0.000;0.000;2022-08-03T07:12:14;23.60;67.90
47414;DHT22;33163;0.000;0.000;2022-08-03T07:14:41;23.60;67.90
47414;DHT22;33163;0.000;0.000;2022-08-03T07:17:08;23.60;68.60
47414;DHT22;33163;0.000;0.000;2022-08-03T07:19:35;23.60;67.80
47414;DHT22;33163;0.000;0.000;2022-08-03T07:22:01;23.60;67.90
47414;DHT22;33163;0.000;0.000;2022-08-03T07:24:30;23.60;67.90
47414;DHT22;33163;0.000;0.000;2022-08-03T07:26:56;23.60;67.90
47414;DHT22;33163;0.000;0.000;2022-08-03T07:29:23;23.60;68.50
47414;DHT22;33163;0.000;0.000;2022-08-03T07:31:50;23.60;67.80
47414;DHT22;33163;0.000;0.000;2022-08-03T07:34:17;23.60;67.80
47414;DHT22;33163;0.000;0.000;2022-08-03T07:36:44;23.60;67.80
47414;DHT22;33163;0.000;0.000;2022-08-03T07:39:11;23.60;67.80
47414;DHT22;33163;0.000;0.000;2022-08-03T07:41:39;23.60;67.80
47414;DHT22;33163;0.000;0.000;2022-08-03T07:44:06;23.60;67.80
47414;DHT22;33163;0.000;0.000;2022-08-03T07:46:32;23.60;67.80
47414;DHT22;33163;0.000;0.000;2022-08-03T07:48:59;23.70;67.90
47414;DHT22;33163;0.000;0.000;2022-08-03T07:51:26;23.70;67.90
47414;DHT22;33163;0.000;0.000;2022-08-03T07:53:53;23.70;67.90
47414;DHT22;33163;0.000;0.000;2022-08-03T07:56:22;23.70;67.90
47414;DHT22;33163;0.000;0.000;2022-08-03T07:58:52;23.70;68.60
47414;DHT22;33163;0.000;0.000;2022-08-03T08:01:19;23.70;68.00
47414;DHT22;33163;0.000;0.000;2022-08-03T08:03:47;23.70;67.90
47414;DHT22;33163;0.000;0.000;2022-08-03T08:06:14;23.70;67.90
47414;DHT22;33163;0.000;0.000;2022-08-03T08:08:42;23.70;68.00
47414;DHT22;33163;0.000;0.000;2022-08-03T08:11:09;23.70;67.90
47414;DHT22;33163;0.000;0.000;2022-08-03T08:13:36;23.70;67.90
47414;DHT22;33163;0.000;0.000;2022-08-03T08:16:04;23.70;68.00
47414;DHT22;33163;0.000;0.000;2022-08-03T08:18:31;23.70;67.90
47414;DHT22;33163;0.000;0.000;2022-08-03T08:20:58;23.70;68.00
47414;DHT22;33163;0.000;0.000;2022-08-03T08:23:26;23.80;67.90
47414;DHT22;33163;0.000;0.000;2022-08-03T08:25:53;23.70;67.90
47414;DHT22;33163;0.000;0.000;2022-08-03T08:28:21;23.80;67.90
47414;DHT22;33163;0.000;0.000;2022-08-03T08:30:48;23.80;67.90
47414;DHT22;33163;0.000;0.000;2022-08-03T08:33:16;23.80;67.80
47414;DHT22;33163;0.000;0.000;2022-08-03T08:35:43;23.80;67.80
47414;DHT22;33163;0.000;0.000;2022-08-03T08:38:10;23.80;67.70
47414;DHT22;33163;0.000;0.000;2022-08-03T08:40:37;23.90;67.90
47414;DHT22;33163;0.000;0.000;2022-08-03T08:43:04;23.80;67.80
47414;DHT22;33163;0.000;0.000;2022-08-03T08:45:31;23.90;67.80
47414;DHT22;33163;0.000;0.000;2022-08-03T08:48:01;23.90;67.90
47414;DHT22;33163;0.000;0.000;2022-08-03T08:50:30;23.90;67.90
47414;DHT22;33163;0.000;0.000;2022-08-03T08:53:00;23.90;67.70
47414;DHT22;33163;0.000;0.000;2022-08-03T08:55:28;23.90;67.80
47414;DHT22;33163;0.000;0.000;2022-08-03T08:57:57;23.90;67.80
47414;DHT22;33163;0.000;0.000;2022-08-03T09:00:24;23.90;67.70
47414;DHT22;33163;0.000;0.000;2022-08-03T09:02:51;24.00;67.70
47414;DHT22;33163;0.000;0.000;2022-08-03T09:05:19;24.00;68.50
47414;DHT22;33163;0.000;0.000;2022-08-03T09:07:47;24.00;67.70
47414;DHT22;33163;0.000;0.000;2022-08-03T09:10:17;24.00;67.60
47414;DHT22;33163;0.000;0.000;2022-08-03T09:12:47;24.00;67.60
47414;DHT22;33163;0.000;0.000;2022-08-03T09:15:19;24.00;67.60
47414;DHT22;33163;0.000;0.000;2022-08-03T09:17:46;24.00;67.60
47414;DHT22;33163;0.000;0.000;2022-08-03T09:20:13;24.00;67.60
47414;DHT22;33163;0.000;0.000;2022-08-03T09:22:56;24.10;67.70
47414;DHT22;33163;0.000;0.000;2022-08-03T09:25:30;24.10;67.60
47414;DHT22;33163;0.000;0.000;2022-08-03T09:28:06;24.10;67.60
47414;DHT22;33163;0.000;0.000;2022-08-03T09:30:33;24.10;67.70
47414;DHT22;33163;0.000;0.000;2022-08-03T09:33:00;24.20;67.60
47414;DHT22;33163;0.000;0.000;2022-08-03T09:35:27;24.20;67.50
47414;DHT22;33163;0.000;0.000;2022-08-03T09:38:09;24.20;67.50
47414;DHT22;33163;0.000;0.000;2022-08-03T09:40:36;24.30;67.60
47414;DHT22;33163;0.000;0.000;2022-08-03T09:43:03;24.20;67.50
47414;DHT22;33163;0.000;0.000;2022-08-03T09:45:32;24.30;67.50
47414;DHT22;33163;0.000;0.000;2022-08-03T09:48:19;24.30;67.50
47414;DHT22;33163;0.000;0.000;2022-08-03T09:50:49;24.30;67.40
47414;DHT22;33163;0.000;0.000;2022-08-03T09:53:20;24.30;67.40
47414;DHT22;33163;0.000;0.000;2022-08-03T09:55:52;24.30;67.40
47414;DHT22;33163;0.000;0.000;2022-08-03T09:58:20;24.40;67.40
47414;DHT22;33163;0.000;0.000;2022-08-03T10:00:53;24.40;67.40
47414;DHT22;33163;0.000;0.000;2022-08-03T10:03:20;24.40;67.40
47414;DHT22;33163;0.000;0.000;2022-08-03T10:05:47;24.40;67.40
47414;DHT22;33163;0.000;0.000;2022-08-03T10:08:14;24.40;67.30
47414;DHT22;33163;0.000;0.000;2022-08-03T10:10:44;24.40;67.30
47414;DHT22;33163;0.000;0.000;2022-08-03T10:13:12;24.50;67.30
47414;DHT22;33163;0.000;0.000;2022-08-03T10:15:39;24.50;67.30
47414;DHT22;33163;0.000;0.000;2022-08-03T10:18:06;24.50;67.30
47414;DHT22;33163;0.000;0.000;2022-08-03T10:20:37;24.50;67.90
47414;DHT22;33163;0.000;0.000;2022-08-03T10:23:07;24.50;67.20
47414;DHT22;33163;0.000;0.000;2022-08-03T10:25:37;24.50;67.20
47414;DHT22;33163;0.000;0.000;2022-08-03T10:28:07;24.50;67.10
47414;DHT22;33163;0.000;0.000;2022-08-03T10:30:35;24.50;67.10
47414;DHT22;33163;0.000;0.000;2022-08-03T10:33:09;24.60;67.10
47414;DHT22;33163;0.000;0.000;2022-08-03T10:35:39;24.60;67.00
47414;DHT22;33163;0.000;0.000;2022-08-03T10:38:09;24.60;67.10
47414;DHT22;33163;0.000;0.000;2022-08-03T10:40:39;24.60;67.10
47414;DHT22;33163;0.000;0.000;2022-08-03T10:43:11;24.60;67.10
47414;DHT22;33163;0.000;0.000;2022-08-03T10:45:43;24.70;67.00
47414;DHT22;33163;0.000;0.000;2022-08-03T10:48:12;24.70;67.00
47414;DHT22;33163;0.000;0.000;2022-08-03T10:50:39;24.70;67.00
47414;DHT22;33163;0.000;0.000;2022-08-03T10:53:07;24.70;66.90
47414;DHT22;33163;0.000;0.000;2022-08-03T10:55:36;24.70;66.90
47414;DHT22;33163;0.000;0.000;2022-08-03T10:58:46;24.70;67.00
47414;DHT22;33163;0.000;0.000;2022-08-03T11:01:14;24.80;66.90
47414;DHT22;33163;0.000;0.000;2022-08-03T11:04:15;24.80;66.90
47414;DHT22;33163;0.000;0.000;2022-08-03T11:06:43;24.80;66.90
47414;DHT22;33163;0.000;0.000;2022-08-03T11:09:15;24.80;66.90
47414;DHT22;33163;0.000;0.000;2022-08-03T11:11:43;24.80;66.80
47414;DHT22;33163;0.000;0.000;2022-08-03T11:14:13;24.80;66.90
47414;DHT22;33163;0.000;0.000;2022-08-03T11:16:43;24.80;66.80
47414;DHT22;33163;0.000;0.000;2022-08-03T11:19:12;24.80;66.80
47414;DHT22;33163;0.000;0.000;2022-08-03T11:21:55;24.80;66.80
47414;DHT22;33163;0.000;0.000;2022-08-03T11:24:56;24.90;66.70
47414;DHT22;33163;0.000;0.000;2022-08-03T11:27:25;24.80;66.80
47414;DHT22;33163;0.000;0.000;2022-08-03T11:30:00;24.90;67.50
47414;DHT22;33163;0.000;0.000;2022-08-03T11:32:57;24.90;66.80
47414;DHT22;33163;0.000;0.000;2022-08-03T11:35:25;24.90;66.80
47414;DHT22;33163;0.000;0.000;2022-08-03T11:38:07;24.90;66.80
47414;DHT22;33163;0.000;0.000;2022-08-03T11:40:36;24.90;66.70
47414;DHT22;33163;0.000;0.000;2022-08-03T11:43:04;24.90;66.70
47414;DHT22;33163;0.000;0.000;2022-08-03T11:45:33;24.90;66.70
47414;DHT22;33163;0.000;0.000;2022-08-03T11:48:11;24.90;66.60
47414;DHT22;33163;0.000;0.000;2022-08-03T11:50:39;25.00;66.70
47414;DHT22;33163;0.000;0.000;2022-08-03T11:53:07;24.90;66.60
47414;DHT22;33163;0.000;0.000;2022-08-03T11:55:39;24.90;66.70
47414;DHT22;33163;0.000;0.000;2022-08-03T11:58:07;24.90;66.70
47414;DHT22;33163;0.000;0.000;2022-08-03T12:00:36;24.90;66.70
47414;DHT22;33163;0.000;0.000;2022-08-03T12:03:04;25.00;66.70
47414;DHT22;33163;0.000;0.000;2022-08-03T12:05:33;25.00;66.60
47414;DHT22;33163;0.000;0.000;2022-08-03T12:08:00;24.90;66.60
47414;DHT22;33163;0.000;0.000;2022-08-03T12:10:27;24.90;66.60
47414;DHT22;33163;0.000;0.000;2022-08-03T12:12:55;25.00;66.60
47414;DHT22;33163;0.000;0.000;2022-08-03T12:15:24;24.90;66.60
47414;DHT22;33163;0.000;0.000;2022-08-03T12:17:53;25.00;66.60
47414;DHT22;33163;0.000;0.000;2022-08-03T12:20:22;25.00;66.60
47414;DHT22;33163;0.000;0.000;2022-08-03T12:22:49;24.90;66.60
47414;DHT22;33163;0.000;0.000;2022-08-03T12:25:20;24.90;66.50
47414;DHT22;33163;0.000;0.000;2022-08-03T12:27:48;24.90;66.50
47414;DHT22;33163;0.000;0.000;2022-08-03T12:30:14;24.90;66.50
47414;DHT22;33163;0.000;0.000;2022-08-03T12:32:42;25.00;66.60
47414;DHT22;33163;0.000;0.000;2022-08-03T12:35:21;25.00;66.60
47414;DHT22;33163;0.000;0.000;2022-08-03T12:37:48;25.00;66.50
47414;DHT22;33163;0.000;0.000;2022-08-03T12:40:23;25.00;66.50
47414;DHT22;33163;0.000;0.000;2022-08-03T12:42:50;24.90;66.50
47414;DHT22;33163;0.000;0.000;2022-08-03T12:45:18;24.90;66.50
47414;DHT22;33163;0.000;0.000;2022-08-03T12:47:52;24.90;66.50
47414;DHT22;33163;0.000;0.000;2022-08-03T12:50:30;24.90;66.50
47414;DHT22;33163;0.000;0.000;2022-08-03T12:52:58;25.00;66.50
47414;DHT22;33163;0.000;0.000;2022-08-03T12:55:25;24.90;66.50
47414;DHT22;33163;0.000;0.000;2022-08-03T12:57:59;24.90;66.50
47414;DHT22;33163;0.000;0.000;2022-08-03T13:00:26;24.90;66.40
47414;DHT22;33163;0.000;0.000;2022-08-03T13:02:58;24.90;66.40
47414;DHT22;33163;0.000;0.000;2022-08-03T13:05:26;24.90;66.40
47414;DHT22;33163;0.000;0.000;2022-08-03T13:07:54;24.90;66.40
47414;DHT22;33163;0.000;0.000;2022-08-03T13:10:29;24.90;66.40
47414;DHT22;33163;0.000;0.000;2022-08-03T13:12:56;24.90;66.30
47414;DHT22;33163;0.000;0.000;2022-08-03T13:15:25;24.90;66.40
47414;DHT22;33163;0.000;0.000;2022-08-03T13:17:53;24.90;66.30
47414;DHT22;33163;0.000;0.000;2022-08-03T13:20:20;25.00;66.30
47414;DHT22;33163;0.000;0.000;2022-08-03T13:22:47;24.90;66.30
47414;DHT22;33163;0.000;0.000;2022-08-03T13:25:15;24.90;66.20
47414;DHT22;33163;0.000;0.000;2022-08-03T13:27:42;24.90;66.20
47414;DHT22;33163;0.000;0.000;2022-08-03T13:30:09;24.90;66.30
47414;DHT22;33163;0.000;0.000;2022-08-03T13:32:36;24.90;66.20
47414;DHT22;33163;0.000;0.000;2022-08-03T13:35:04;24.90;66.20
47414;DHT22;33163;0.000;0.000;2022-08-03T13:37:31;24.90;66.20
47414;DHT22;33163;0.000;0.000;2022-08-03T13:39:58;24.90;66.20
47414;DHT22;33163;0.000;0.000;2022-08-03T13:42:27;24.90;66.20
47414;DHT22;33163;0.000;0.000;2022-08-03T13:44:54;24.90;66.20
47414;DHT22;33163;0.000;0.000;2022-08-03T13:47:21;24.90;66.10
47414;DHT22;33163;0.000;0.000;2022-08-03T13:49:48;24.90;66.10
47414;DHT22;33163;0.000;0.000;2022-08-03T13:52:16;24.90;66.20
47414;DHT22;33163;0.000;0.000;2022-08-03T13:54:42;24.90;66.10
47414;DHT22;33163;0.000;0.000;2022-08-03T13:57:09;24.90;66.10
47414;DHT22;33163;0.000;0.000;2022-08-03T13:59:37;25.00;66.10
47414;DHT22;33163;0.000;0.000;2022-08-03T14:02:04;24.90;66.10
47414;DHT22;33163;0.000;0.000;2022-08-03T14:04:31;24.90;66.10
47414;DHT22;33163;0.000;0.000;2022-08-03T14:06:57;24.90;66.10
47414;DHT22;33163;0.000;0.000;2022-08-03T14:09:24;24.90;66.10
47414;DHT22;33163;0.000;0.000;2022-08-03T14:11:54;24.90;66.10
47414;DHT22;33163;0.000;0.000;2022-08-03T14:14:20;24.90;66.10
47414;DHT22;33163;0.000;0.000;2022-08-03T14:16:49;24.90;66.10
47414;DHT22;33163;0.000;0.000;2022-08-03T14:19:15;24.90;66.10
47414;DHT22;33163;0.000;0.000;2022-08-03T14:21:42;24.90;66.20
47414;DHT22;33163;0.000;0.000;2022-08-03T14:24:09;24.90;66.20
47414;DHT22;33163;0.000;0.000;2022-08-03T14:26:36;24.90;66.20
47414;DHT22;33163;0.000;0.000;2022-08-03T14:29:03;24.90;66.20
47414;DHT22;33163;0.000;0.000;2022-08-03T14:31:30;24.90;66.20
47414;DHT22;33163;0.000;0.000;2022-08-03T14:33:58;24.90;66.20
47414;DHT22;33163;0.000;0.000;2022-08-03T14:36:25;24.90;66.20
47414;DHT22;33163;0.000;0.000;2022-08-03T14:38:52;24.90;66.20
47414;DHT22;33163;0.000;0.000;2022-08-03T14:41:18;24.90;66.20
47414;DHT22;33163;0.000;0.000;2022-08-03T14:43:46;24.90;66.20
47414;DHT22;33163;0.000;0.000;2022-08-03T14:46:13;24.90;66.20
47414;DHT22;33163;0.000;0.000;2022-08-03T14:48:40;24.90;66.20
47414;DHT22;33163;0.000;0.000;2022-08-03T14:51:08;24.90;66.20
47414;DHT22;33163;0.000;0.000;2022-08-03T14:53:34;24.90;66.10
47414;DHT22;33163;0.000;0.000;2022-08-03T14:56:01;24.90;66.10
47414;DHT22;33163;0.000;0.000;2022-08-03T14:58:28;24.80;66.10
47414;DHT22;33163;0.000;0.000;2022-08-03T15:00:55;24.90;66.10
47414;DHT22;33163;0.000;0.000;2022-08-03T15:03:23;24.90;66.10
47414;DHT22;33163;0.000;0.000;2022-08-03T15:05:51;24.80;66.10
47414;DHT22;33163;0.000;0.000;2022-08-03T15:08:19;24.80;66.00
47414;DHT22;33163;0.000;0.000;2022-08-03T15:10:47;24.90;66.10
47414;DHT22;33163;0.000;0.000;2022-08-03T15:13:14;24.90;66.80
47414;DHT22;33163;0.000;0.000;2022-08-03T15:15:40;24.90;66.10
47414;DHT22;33163;0.000;0.000;2022-08-03T15:18:07;24.80;66.00
47414;DHT22;33163;0.000;0.000;2022-08-03T15:20:34;24.90;66.10
47414;DHT22;33163;0.000;0.000;2022-08-03T15:23:01;24.80;66.70
47414;DHT22;33163;0.000;0.000;2022-08-03T15:25:29;24.90;66.10
47414;DHT22;33163;0.000;0.000;2022-08-03T15:27:56;24.80;66.00
47414;DHT22;33163;0.000;0.000;2022-08-03T15:30:23;24.80;66.00
47414;DHT22;33163;0.000;0.000;2022-08-03T15:32:49;24.80;66.00
47414;DHT22;33163;0.000;0.000;2022-08-03T15:35:16;24.80;66.00
47414;DHT22;33163;0.000;0.000;2022-08-03T15:37:43;24.80;66.00
47414;DHT22;33163;0.000;0.000;2022-08-03T15:40:11;24.80;66.00
47414;DHT22;33163;0.000;0.000;2022-08-03T15:42:39;24.80;66.00
47414;DHT22;33163;0.000;0.000;2022-08-03T15:45:07;24.80;66.00
47414;DHT22;33163;0.000;0.000;2022-08-03T15:47:34;24.80;65.90
47414;DHT22;33163;0.000;0.000;2022-08-03T15:50:00;24.80;65.90
47414;DHT22;33163;0.000;0.000;2022-08-03T15:52:27;24.80;65.90
47414;DHT22;33163;0.000;0.000;2022-08-03T15:54:54;24.80;65.90